Time;durP1;ratioP1;P1;durP2;ratioP2;P2;SDS_P1;SDS_P2;PMS_P1;PMS_P2;Temp;Humidity;BMP_temperature;BMP_pressure;BME280_temperature;BME280_humidity;BME280_pressure;Samples;Min_cycle;Max_cycle;Signal;HPM_P1;HPM_P2
2022/12/22 03:26:32;;;;;;;130.18;121.57;;;8.10;99.90;;;;;;5134444;27;20094;-88
2022/12/22 03:29:56;;;;;;;14.43;11.25;;;7.90;99.90;;;;;;5133840;27;20088;-88
2022/12/22 03:33:00;;;;;;;219.13;205.30;;;7.90;99.90;;;;;;5097962;27;20051;-86
2022/12/22 03:36:12;;;;;;;;;;;;;;;;;;;;;
2022/12/22 03:39:27;;;;;;;241.88;227.32;;;7.90;99.90;;;;;;5134055;27;20380;-88
2022/12/22 03:49:35;;;;;;;;;;;;;;;;;;;;;
2022/12/22 03:53:08;;;;;;;;;;;;;;;;;;;;;
2022/12/22 03:56:12;;;;;;;263.52;232.23;;;7.90;99.90;;;;;;5113539;27;20055;-87
2022/12/22 03:59:46;;;;;;;;;;;;;;;;;;;;;
2022/12/22 04:03:00;;;;;;;172.45;161.93;;;7.90;99.90;;;;;;5056881;28;20055;-86
2022/12/22 04:06:02;;;;;;;;;;;;;;;;;;;;;
2022/12/22 04:09:26;;;;;;;;;;;;;;;;;;;;;
2022/12/22 04:12:58;;;;;;;126.68;119.40;;;7.80;99.90;;;;;;5113403;28;20124;-87
2022/12/22 04:16:28;;;;;;;;;;;;;;;;;;;;;
2022/12/22 04:19:54;;;;;;;;;;;;;;;;;;;;;
2022/12/22 04:23:08;;;;;;;;;;;;;;;;;;;;;
2022/12/22 04:26:18;;;;;;;56.90;52.80;;;7.80;99.90;;;;;;5112930;28;20051;-87
2022/12/22 04:29:40;;;;;;;468.67;304.23;;;7.80;99.90;;;;;;5112630;28;20035;-88
2022/12/22 04:33:00;;;;;;;469.88;300.15;;;7.80;99.90;;;;;;5113239;28;20047;-87
2022/12/22 04:36:22;;;;;;;;;;;;;;;;;;;;;
2022/12/22 04:39:56;;;;;;;506.83;317.00;;;7.80;99.90;;;;;;5113324;28;20061;-88
2022/12/22 04:43:18;;;;;;;583.08;414.10;;;7.70;99.90;;;;;;5112944;28;20123;-87
2022/12/22 04:46:34;;;;;;;;;;;;;;;;;;;;;
2022/12/22 04:49:58;;;;;;;;;;;;;;;;;;;;;
2022/12/22 04:53:32;;;;;;;605.92;425.73;;;7.70;99.90;;;;;;5053958;28;20516;-86
2022/12/22 04:56:36;;;;;;;;;;;;;;;;;;;;;
2022/12/22 05:00:02;;;;;;;;;;;;;;;;;;;;;
2022/12/22 05:03:14;;;;;;;622.67;426.23;;;7.70;99.90;;;;;;5035379;28;20042;-88
2022/12/22 05:06:32;;;;;;;;;;;;;;;;;;;;;
2022/12/22 05:10:00;;;;;;;;;;;;;;;;;;;;;
2022/12/22 05:13:24;;;;;;;538.35;317.40;;;7.70;99.90;;;;;;5049326;28;20052;-88
2022/12/22 05:16:25;;;;;;;587.38;335.88;;;7.60;99.90;;;;;;5053661;28;20425;-87
2022/12/22 05:19:22;;;;;;;;;;;;;;;;;;;;;
2022/12/22 05:22:40;;;;;;;;;;;;;;;;;;;;;
2022/12/22 05:26:06;;;;;;;;;;;;;;;;;;;;;
2022/12/22 05:29:32;;;;;;;;;;;;;;;;;;;;;
2022/12/22 05:32:50;;;;;;;673.25;422.35;;;7.60;99.90;;;;;;5053081;28;20083;-87
2022/12/22 05:36:18;;;;;;;;;;;;;;;;;;;;;
2022/12/22 05:39:26;;;;;;;651.42;345.55;;;7.50;99.90;;;;;;5051841;28;20501;-87
2022/12/22 05:42:41;;;;;;;692.60;414.52;;;7.50;99.90;;;;;;4993922;28;20054;-87
2022/12/22 05:46:00;;;;;;;;;;;;;;;;;;;;;
2022/12/22 05:49:04;;;;;;;689.13;419.98;;;7.50;99.90;;;;;;4992716;28;20070;-85
2022/12/22 05:52:26;;;;;;;640.75;348.35;;;7.40;99.90;;;;;;4993756;28;20058;-86
2022/12/22 05:55:52;;;;;;;;;;;;;;;;;;;;;
2022/12/22 05:59:08;;;;;;;;;;;;;;;;;;;;;
2022/12/22 06:02:40;;;;;;;;;;;;;;;;;;;;;
2022/12/22 06:06:06;;;;;;;;;;;;;;;;;;;;;
2022/12/22 06:09:22;;;;;;;;;;;;;;;;;;;;;
2022/12/22 06:12:40;;;;;;;652.75;350.92;;;7.10;99.90;;;;;;5059027;28;20084;-86
2022/12/22 06:15:54;;;;;;;692.22;420.27;;;7.00;99.90;;;;;;5093935;28;20459;-85
2022/12/22 06:19:02;;;;;;;641.40;348.13;;;6.90;99.90;;;;;;5093893;28;20052;-86
2022/12/22 06:22:26;;;;;;;603.83;329.92;;;6.80;99.90;;;;;;5094528;28;20048;-86
2022/12/22 06:25:50;;;;;;;;;;;;;;;;;;;;;
2022/12/22 06:29:10;;;;;;;588.83;327.30;;;6.70;99.90;;;;;;5072417;28;20119;-88
2022/12/22 06:32:24;;;;;;;572.95;327.15;;;6.60;99.90;;;;;;5052638;28;20057;-86
2022/12/22 06:35:46;;;;;;;662.60;416.55;;;6.60;99.90;;;;;;5052312;28;20053;-87
2022/12/22 06:39:11;;;;;;;;;;;;;;;;;;;;;
2022/12/22 06:46:06;;;;;;;;;;;;;;;;;;;;;
2022/12/22 06:49:31;;;;;;;599.45;404.98;;;6.40;99.90;;;;;;5071632;28;20404;-86
2022/12/22 06:52:48;;;;;;;673.25;405.45;;;6.30;99.90;;;;;;5021696;28;20052;-87
2022/12/22 06:56:18;;;;;;;;;;;;;;;;;;;;;
2022/12/22 06:59:04;;;;;;;607.60;333.08;;;6.20;99.90;;;;;;5039718;28;20060;-89
2022/12/22 07:01:55;;;;;;;602.05;326.13;;;6.00;99.90;;;;;;5073169;28;20047;-88
2022/12/22 07:05:06;;;;;;;608.25;328.33;;;5.50;99.90;;;;;;5064541;28;20224;-89
2022/12/22 07:08:24;;;;;;;607.20;328.08;;;6.00;99.90;;;;;;5041754;28;20052;-91
2022/12/22 07:11:25;;;;;;;603.65;326.50;;;6.00;99.90;;;;;;5051619;28;20096;-88
2022/12/22 07:14:18;;;;;;;595.78;324.92;;;6.10;99.90;;;;;;5034455;28;20087;-87
2022/12/22 07:17:14;;;;;;;;;;;;;;;;;;;;;
2022/12/22 07:20:40;;;;;;;;;;;;;;;;;;;;;
2022/12/22 07:23:39;;;;;;;618.45;327.38;;;6.10;99.90;;;;;;4953198;29;20520;-87
2022/12/22 07:26:40;;;;;;;629.75;334.02;;;6.10;99.90;;;;;;4953383;29;20059;-86
2022/12/22 07:29:46;;;;;;;;;;;;;;;;;;;;;
2022/12/22 07:33:00;;;;;;;646.25;339.83;;;6.10;99.90;;;;;;4935068;29;20473;-86
2022/12/22 07:36:16;;;;;;;650.17;339.77;;;6.10;99.90;;;;;;4925232;29;20147;-90
2022/12/22 07:39:23;;;;;;;632.63;334.83;;;6.10;99.90;;;;;;4933345;29;20135;-86
2022/12/22 07:46:22;;;;;;;723.47;413.33;;;6.10;99.90;;;;;;4980167;28;20045;-86
2022/12/22 07:52:47;;;;;;;776.95;415.25;;;6.50;99.90;;;;;;5030601;28;20045;-85
2022/12/22 07:55:36;;;;;;;755.80;409.65;;;6.10;99.90;;;;;;5066859;28;20052;-86
2022/12/22 07:58:15;;;;;;;691.90;354.50;;;6.10;99.90;;;;;;5020914;28;20044;-86
2022/12/22 08:01:18;;;;;;;;;;;;;;;;;;;;;
2022/12/22 08:04:16;;;;;;;;;;;;;;;;;;;;;
2022/12/22 08:07:30;;;;;;;;;;;;;;;;;;;;;
2022/12/22 08:10:23;;;;;;;726.30;407.88;;;6.10;99.90;;;;;;5072264;28;20048;-83
2022/12/22 08:13:33;;;;;;;660.30;340.48;;;6.10;99.90;;;;;;5077237;28;20393;-86
2022/12/22 08:16:35;;;;;;;689.00;350.38;;;6.10;99.90;;;;;;5092050;28;20106;-83
2022/12/22 08:19:33;;;;;;;538.67;312.80;;;6.10;99.90;;;;;;5101630;28;20052;-88
2022/12/22 08:22:26;;;;;;;;;;;;;;;;;;;;;
2022/12/22 08:25:32;;;;;;;641.28;339.35;;;6.10;99.90;;;;;;5113448;28;20046;-83
2022/12/22 08:28:33;;;;;;;578.60;320.48;;;6.10;99.90;;;;;;5116171;28;20043;-85
2022/12/22 08:31:32;;;;;;;612.88;411.90;;;6.10;99.90;;;;;;5105458;28;20041;-86
2022/12/22 08:34:38;;;;;;;692.38;414.58;;;6.10;99.90;;;;;;5096426;28;20560;-85
2022/12/22 08:37:39;;;;;;;611.03;414.40;;;6.10;99.90;;;;;;5088436;28;20055;-86
2022/12/22 08:40:36;;;;;;;698.40;352.42;;;6.10;99.90;;;;;;5064439;28;20066;-84
2022/12/22 08:43:44;;;;;;;;;;;;;;;;;;;;;
2022/12/22 08:46:41;;;;;;;766.50;419.63;;;6.10;99.90;;;;;;5117094;28;20040;-85
2022/12/22 08:50:07;;;;;;;;;;;;;;;;;;;;;
2022/12/22 08:53:00;;;;;;;714.60;363.00;;;6.10;99.90;;;;;;5115375;28;20407;-85
2022/12/22 08:56:18;;;;;;;703.58;352.88;;;6.10;99.90;;;;;;5102232;28;20079;-83
2022/12/22 08:59:24;;;;;;;816.07;416.07;;;6.10;99.90;;;;;;5116338;28;20615;-83
2022/12/22 09:02:32;;;;;;;812.42;404.85;;;6.20;99.90;;;;;;5116647;28;20043;-85
2022/12/22 09:05:32;;;;;;;794.55;410.23;;;6.20;99.90;;;;;;5115600;28;20127;-85
2022/12/22 09:08:23;;;;;;;772.35;362.40;;;6.10;99.90;;;;;;5096929;28;20150;-85
2022/12/22 09:11:20;;;;;;;830.47;417.77;;;6.20;99.90;;;;;;5098287;28;20043;-83
2022/12/22 09:14:20;;;;;;;739.35;358.98;;;6.20;99.90;;;;;;5116607;28;20070;-85
2022/12/22 09:17:48;;;;;;;;;;;;;;;;;;;;;
2022/12/22 09:21:01;;;;;;;;;;;;;;;;;;;;;
2022/12/22 09:24:03;;;;;;;729.83;359.45;;;6.20;99.90;;;;;;5073364;28;20060;-84
2022/12/22 09:26:46;;;;;;;826.00;422.80;;;6.20;99.90;;;;;;5072685;28;20052;-85
2022/12/22 09:29:43;;;;;;;;;;;;;;;;;;;;;
2022/12/22 09:32:31;;;;;;;817.97;422.97;;;6.40;99.90;;;;;;5039910;28;20049;-85
2022/12/22 09:35:23;;;;;;;668.08;346.65;;;6.40;99.90;;;;;;5056825;28;20151;-86
2022/12/22 09:38:18;;;;;;;756.03;370.55;;;6.50;99.90;;;;;;5053665;28;20052;-85
2022/12/22 09:41:58;;;;;;;;;;;;;;;;;;;;;
2022/12/22 09:44:52;;;;;;;777.78;414.15;;;6.60;99.90;;;;;;5056536;28;20120;-84
2022/12/22 09:48:03;;;;;;;724.58;358.75;;;6.60;99.90;;;;;;5073154;28;20076;-85
2022/12/22 09:51:03;;;;;;;713.28;354.48;;;6.60;99.90;;;;;;5072804;28;20053;-85
2022/12/22 09:54:02;;;;;;;766.53;417.55;;;6.60;99.90;;;;;;5023005;28;20080;-83
2022/12/22 09:57:03;;;;;;;748.53;409.73;;;6.70;99.90;;;;;;5072082;28;20179;-83
2022/12/22 10:00:04;;;;;;;679.80;348.70;;;6.70;99.90;;;;;;5055489;28;20045;-84
2022/12/22 10:03:25;;;;;;;;;;;;;;;;;;;;;
2022/12/22 10:06:47;;;;;;;640.03;337.02;;;6.80;99.90;;;;;;5068690;28;20057;-86
2022/12/22 10:09:51;;;;;;;753.17;415.92;;;6.90;99.90;;;;;;5056043;28;20131;-85
2022/12/22 10:13:01;;;;;;;;;;;;;;;;;;;;;
2022/12/22 10:15:54;;;;;;;693.80;415.00;;;7.00;99.90;;;;;;5094975;28;20040;-83
2022/12/22 10:19:20;;;;;;;;;;;;;;;;;;;;;
2022/12/22 10:22:41;;;;;;;646.97;344.45;;;7.10;99.90;;;;;;5093611;28;20138;-82
2022/12/22 10:25:49;;;;;;;722.58;422.95;;;7.20;99.90;;;;;;5092318;28;20044;-82
2022/12/22 10:28:44;;;;;;;739.90;433.38;;;7.30;99.90;;;;;;5093269;28;20056;-82
2022/12/22 10:31:45;;;;;;;;;;;;;;;;;;;;;
2022/12/22 10:34:41;;;;;;;591.53;326.15;;;7.40;99.90;;;;;;5076056;28;20587;-82
2022/12/22 10:37:50;;;;;;;614.90;340.02;;;7.50;99.90;;;;;;5094454;28;20040;-83
2022/12/22 10:40:44;;;;;;;647.25;421.27;;;7.50;99.90;;;;;;5094013;28;20052;-84
2022/12/22 10:43:58;;;;;;;537.95;318.45;;;7.50;99.90;;;;;;5094408;28;20076;-84
2022/12/22 10:46:44;;;;;;;621.67;345.08;;;7.60;99.90;;;;;;5093427;28;20048;-82
2022/12/22 10:49:55;;;;;;;604.88;428.15;;;7.60;99.90;;;;;;5093249;28;20048;-83
2022/12/22 10:53:05;;;;;;;;;;;;;;;;;;;;;
2022/12/22 10:56:26;;;;;;;750.03;438.60;;;7.50;99.90;;;;;;5031884;28;20049;-82
2022/12/22 10:59:23;;;;;;;790.42;438.13;;;7.60;99.90;;;;;;4984869;28;20058;-83
2022/12/22 11:02:52;;;;;;;834.63;435.23;;;7.60;99.90;;;;;;4992711;28;20442;-83
2022/12/22 11:05:56;;;;;;;;;;;;;;;;;;;;;
2022/12/22 11:08:57;;;;;;;796.67;429.98;;;7.70;99.90;;;;;;4991357;28;20051;-83
2022/12/22 11:12:03;;;;;;;676.35;356.05;;;7.70;99.90;;;;;;4978270;28;20050;-82
2022/12/22 11:15:28;;;;;;;;;;;;;;;;;;;;;
2022/12/22 11:18:48;;;;;;;775.38;422.77;;;7.80;99.90;;;;;;4992279;28;20042;-83
2022/12/22 11:22:08;;;;;;;;;;;;;;;;;;;;;
2022/12/22 11:25:31;;;;;;;760.03;428.67;;;7.90;99.90;;;;;;4992222;28;20190;-83
2022/12/22 11:28:33;;;;;;;;;;;7.90;99.90;;;;;;4969168;28;20388;-84
2022/12/22 11:31:58;;;;;;;726.50;369.35;;;7.90;99.90;;;;;;4993827;28;19927;-83
2022/12/22 11:35:36;;;;;;;745.67;372.58;;;7.90;99.90;;;;;;5091574;28;20079;-82
2022/12/22 11:39:00;;;;;;;822.70;434.00;;;8.00;99.90;;;;;;5093739;28;20041;-82
2022/12/22 11:42:10;;;;;;;766.03;379.85;;;8.10;99.90;;;;;;5091587;28;20055;-83
2022/12/22 11:45:16;;;;;;;;;;;;;;;;;;;;;
2022/12/22 11:48:48;;;;;;;839.95;449.35;;;8.10;99.90;;;;;;5030772;28;20395;-83
2022/12/22 11:52:00;;;;;;;770.13;384.70;;;8.00;99.90;;;;;;5012075;28;20080;-84
2022/12/22 11:55:02;;;;;;;801.78;397.75;;;8.00;99.90;;;;;;5029934;28;20121;-83
2022/12/22 11:58:36;;;;;;;995.03;456.30;;;8.10;99.90;;;;;;5014299;28;20053;-83
2022/12/22 12:01:39;;;;;;;964.97;443.23;;;8.20;99.90;;;;;;5025867;28;20049;-85
2022/12/22 12:05:02;;;;;;;1003.60;448.63;;;8.20;99.90;;;;;;5030887;28;20053;-83
2022/12/22 12:08:28;;;;;;;;;;;;;;;;;;;;;
2022/12/22 12:11:46;;;;;;;275.58;230.80;;;8.40;99.90;;;;;;5028841;28;20095;-85
2022/12/22 12:14:49;;;;;;;751.08;382.65;;;8.50;99.90;;;;;;4994601;28;20049;-85
2022/12/22 12:18:01;;;;;;;622.15;319.17;;;8.50;99.90;;;;;;4998256;28;20096;-84
2022/12/22 12:20:39;;;;;;;8.95;1.77;;;8.60;99.90;;;;;;5031738;28;20044;-84
2022/12/22 12:24:02;;;;;;;;;;;;;;;;;;;;;
2022/12/22 12:27:02;;;;;;;281.77;182.88;;;8.60;99.90;;;;;;5057404;28;20506;-84
2022/12/22 12:30:24;;;;;;;;;;;;;;;;;;;;;
2022/12/22 12:33:36;;;;;;;4.78;2.58;;;8.60;99.90;;;;;;5092788;28;20476;-83
2022/12/22 12:37:06;;;;;;;8.63;4.05;;;8.50;99.90;;;;;;5091837;28;20048;-83
2022/12/22 12:40:06;;;;;;;44.08;40.97;;;8.50;99.90;;;;;;5046074;28;20041;-87
2022/12/22 12:43:16;;;;;;;;;;;;;;;;;;;;;
2022/12/22 12:46:08;;;;;;;58.92;55.65;;;8.40;99.90;;;;;;5041229;28;20057;-84
2022/12/22 12:49:00;;;;;;;;;;;;;;;;;;;;;
2022/12/22 12:52:10;;;;;;;;;;;;;;;;;;;;;
2022/12/22 12:55:04;;;;;;;;;;;;;;;;;;;;;
2022/12/22 12:58:08;;;;;;;8.82;1.40;;;8.20;99.90;;;;;;5007803;28;20052;-85
2022/12/22 13:01:08;;;;;;;6.13;1.63;;;8.20;99.90;;;;;;5029738;28;20438;-84
2022/12/22 13:04:47;;;;;;;5.32;1.38;;;8.30;99.90;;;;;;5031283;28;20056;-84
2022/12/22 13:08:08;;;;;;;6.20;4.38;;;8.20;99.90;;;;;;5027997;28;20041;-84
2022/12/22 13:11:04;;;;;;;;;;;;;;;;;;;;;
2022/12/22 13:13:52;;;;;;;38.83;34.60;;;8.20;99.90;;;;;;5045098;28;20142;-84
2022/12/22 13:17:12;;;;;;;;;;;;;;;;;;;;;
2022/12/22 13:20:17;;;;;;;62.83;58.15;;;8.10;99.90;;;;;;5094716;28;20047;-84
2022/12/22 13:22:59;;;;;;;408.80;297.88;;;8.10;99.90;;;;;;5035040;28;20072;-85
2022/12/22 13:26:00;;;;;;;7.07;1.10;;;8.10;99.90;;;;;;5050113;28;20091;-85
2022/12/22 13:28:44;;;;;;;2.97;1.10;;;8.10;99.90;;;;;;5029525;28;20057;-85
2022/12/22 13:31:56;;;;;;;;;;;;;;;;;;;;;
2022/12/22 13:34:51;;;;;;;11.07;1.58;;;8.20;99.90;;;;;;5048395;28;20414;-84
2022/12/22 13:37:29;;;;;;;4.47;1.08;;;8.20;99.90;;;;;;5070735;28;20505;-84
2022/12/22 13:40:22;;;;;;;6.00;1.10;;;8.20;99.90;;;;;;5072639;28;20036;-85
2022/12/22 13:43:22;;;;;;;4.82;1.27;;;8.20;99.90;;;;;;5052457;28;20047;-84
2022/12/22 13:46:00;;;;;;;3.20;0.85;;;8.20;99.90;;;;;;5036534;28;20045;-84
2022/12/22 13:48:41;;;;;;;138.98;115.00;;;8.20;99.90;;;;;;5036308;28;20075;-83
2022/12/22 13:51:28;;;;;;;471.52;300.83;;;8.20;99.90;;;;;;5052888;28;20451;-84
2022/12/22 13:54:12;;;;;;;485.00;315.08;;;8.20;99.90;;;;;;5035398;28;20580;-85
2022/12/22 13:56:48;;;;;;;325.33;291.00;;;8.10;99.90;;;;;;5032815;28;20044;-84
2022/12/22 13:59:34;;;;;;;435.65;388.25;;;8.10;99.90;;;;;;5050056;28;20045;-84
2022/12/22 14:02:07;;;;;;;318.88;281.58;;;8.20;99.90;;;;;;5064393;28;20145;-83
2022/12/22 14:04:40;;;;;;;341.20;288.63;;;8.20;99.90;;;;;;5051931;28;20155;-84
2022/12/22 14:07:22;;;;;;;41.13;38.42;;;8.10;99.90;;;;;;5081247;28;20400;-84
2022/12/22 14:09:50;;;;;;;71.95;66.25;;;8.10;99.90;;;;;;5101817;28;20052;-83
2022/12/22 14:12:49;;;;;;;132.18;125.47;;;8.10;99.90;;;;;;5114235;28;20043;-84
2022/12/22 14:15:48;;;;;;;349.17;276.60;;;8.20;99.90;;;;;;5094857;28;20055;-85
2022/12/22 14:19:02;;;;;;;493.58;415.60;;;8.20;99.90;;;;;;5079269;28;20048;-84
2022/12/22 14:22:31;;;;;;;275.83;261.75;;;8.40;99.90;;;;;;5114294;28;20039;-83
2022/12/22 14:25:32;;;;;;;177.65;167.90;;;8.20;99.90;;;;;;5113248;28;20055;-83
2022/12/22 14:28:51;;;;;;;496.80;425.95;;;8.20;99.90;;;;;;5091668;28;20052;-84
2022/12/22 14:32:08;;;;;;;549.25;428.45;;;8.20;99.90;;;;;;5104722;28;20043;-84
2022/12/22 14:35:18;;;;;;;360.10;326.58;;;8.20;99.90;;;;;;5114147;27;20048;-84
2022/12/22 14:38:21;;;;;;;610.88;481.52;;;8.30;99.90;;;;;;5113836;28;20130;-85
2022/12/22 14:41:09;;;;;;;618.38;442.25;;;8.20;99.90;;;;;;5078878;28;20057;-85
2022/12/22 14:44:03;;;;;;;;;;;;;;;;;;;;;
2022/12/22 14:47:18;;;;;;;;;;;;;;;;;;;;;
2022/12/22 14:50:27;;;;;;;547.67;334.95;;;8.20;99.90;;;;;;5114570;28;20043;-84
2022/12/22 14:53:41;;;;;;;214.27;197.38;;;8.20;99.90;;;;;;5114106;28;20039;-84
2022/12/22 14:56:27;;;;;;;434.15;295.95;;;8.20;99.90;;;;;;5093025;28;20202;-85
2022/12/22 15:00:02;;;;;;;494.55;413.05;;;8.20;99.90;;;;;;5090210;28;20473;-85
2022/12/22 15:02:56;;;;;;;534.08;319.52;;;8.20;99.90;;;;;;5091975;28;20137;-84
2022/12/22 15:05:55;;;;;;;489.33;421.98;;;8.10;99.90;;;;;;5099762;28;20046;-84
2022/12/22 15:09:07;;;;;;;444.38;308.83;;;8.10;99.90;;;;;;5113130;28;20043;-84
2022/12/22 15:12:30;;;;;;;420.90;288.67;;;8.10;99.90;;;;;;5114254;28;20043;-85
2022/12/22 15:15:47;;;;;;;465.20;307.52;;;8.00;99.90;;;;;;5112684;28;20392;-86
2022/12/22 15:18:49;;;;;;;634.67;352.20;;;8.00;99.90;;;;;;5112288;28;20127;-84
2022/12/22 15:21:23;;;;;;;7.90;1.40;;;8.30;99.90;;;;;;5063018;28;20048;-85
2022/12/22 15:23:50;;;;;;;3.35;1.08;;;7.90;99.90;;;;;;5110330;28;20518;-84
2022/12/22 15:26:18;;;;;;;3.40;0.80;;;7.90;99.90;;;;;;5113547;28;20043;-85
2022/12/22 15:28:49;;;;;;;3.67;1.00;;;7.90;99.90;;;;;;5112291;28;20040;-85
2022/12/22 15:31:16;;;;;;;2.47;0.90;;;7.90;99.90;;;;;;5112939;28;20055;-85
2022/12/22 15:33:44;;;;;;;4.22;0.90;;;7.90;99.90;;;;;;5104868;28;20488;-85
2022/12/22 15:36:12;;;;;;;4.32;1.10;;;7.90;99.90;;;;;;5106287;28;20113;-83
2022/12/22 15:38:42;;;;;;;2.08;0.70;;;7.50;99.90;;;;;;5112172;28;20036;-84
2022/12/22 15:41:09;;;;;;;2.33;0.77;;;7.90;99.90;;;;;;5113741;28;20047;-83
2022/12/22 15:43:39;;;;;;;2.75;0.65;;;7.90;99.90;;;;;;5113380;28;20120;-84
2022/12/22 15:46:06;;;;;;;2.80;0.70;;;7.90;99.90;;;;;;5112312;28;20043;-85
2022/12/22 15:48:37;;;;;;;5.85;0.93;;;7.90;99.90;;;;;;5112289;28;20043;-84
2022/12/22 15:51:08;;;;;;;2.00;0.60;;;7.90;99.90;;;;;;5111926;28;20192;-85
2022/12/22 15:53:38;;;;;;;1.88;0.80;;;7.90;99.90;;;;;;5111427;28;20107;-85
2022/12/22 15:56:11;;;;;;;2.92;0.90;;;7.90;99.90;;;;;;5112411;28;20062;-84
2022/12/22 15:58:39;;;;;;;3.95;0.85;;;7.90;99.90;;;;;;5113136;28;20090;-84
2022/12/22 16:01:10;;;;;;;3.80;0.80;;;7.90;99.90;;;;;;5112678;28;20036;-85
2022/12/22 16:04:24;;;;;;;;;;;;;;;;;;;;;
2022/12/22 16:07:58;;;;;;;5.60;0.90;;;7.80;99.90;;;;;;5112695;28;20048;-84
2022/12/22 16:11:06;;;;;;;4.28;1.20;;;7.80;99.90;;;;;;5111800;28;20124;-86
2022/12/22 16:14:18;;;;;;;8.02;1.23;;;7.80;99.90;;;;;;5090925;28;20056;-85
2022/12/22 16:17:17;;;;;;;3.42;1.17;;;7.80;99.90;;;;;;5089848;28;20125;-86
2022/12/22 16:20:24;;;;;;;;;;;;;;;;;;;;;
2022/12/22 16:23:03;;;;;;;3.70;1.05;;;7.80;99.90;;;;;;5069492;28;20081;-84
2022/12/22 16:26:18;;;;;;;6.50;1.55;;;7.80;99.90;;;;;;5055063;28;20580;-87
2022/12/22 16:29:38;;;;;;;5.05;1.88;;;7.70;99.90;;;;;;5090777;28;20071;-87
2022/12/22 16:32:44;;;;;;;8.80;2.28;;;7.70;99.90;;;;;;5090855;28;20598;-85
2022/12/22 16:35:14;;;;;;;5.10;2.38;;;7.70;99.90;;;;;;5087167;28;20054;-87
2022/12/22 16:37:42;;;;;;;5.57;1.70;;;7.70;99.90;;;;;;5090006;28;20040;-85
2022/12/22 16:41:04;;;;;;;;;;;;;;;;;;;;;
2022/12/22 16:43:58;;;;;;;3.03;2.05;;;7.70;99.90;;;;;;5078583;28;20054;-91
2022/12/22 16:46:46;;;;;;;9.07;2.30;;;7.60;99.90;;;;;;5097483;28;20060;-90
2022/12/22 16:49:19;;;;;;;6.65;2.03;;;7.60;99.90;;;;;;5084114;28;20126;-86
2022/12/22 16:51:56;;;;;;;2.92;1.83;;;7.60;99.90;;;;;;5103610;28;20526;-88
2022/12/22 16:55:02;;;;;;;;;;;;;;;;;;;;;
2022/12/22 16:58:19;;;;;;;6.97;2.03;;;7.60;99.90;;;;;;5116853;28;20054;-90
2022/12/22 17:01:36;;;;;;;6.95;1.90;;;7.60;99.90;;;;;;5116211;28;20096;-86
2022/12/22 17:05:05;;;;;;;;;;;;;;;;;;;;;
2022/12/22 17:08:03;;;;;;;3.75;2.63;;;7.60;99.90;;;;;;5096070;28;20526;-86
2022/12/22 17:10:57;;;;;;;461.05;301.05;;;7.60;99.90;;;;;;5094586;28;20348;-87
2022/12/22 17:13:59;;;;;;;607.15;338.45;;;7.50;99.90;;;;;;5096364;28;20048;-87
2022/12/22 17:16:33;;;;;;;819.10;431.60;;;7.50;99.90;;;;;;5094722;28;20040;-87
2022/12/22 17:19:16;;;;;;;577.13;322.10;;;7.50;99.90;;;;;;5095706;28;20044;-87
2022/12/22 17:21:46;;;;;;;617.20;412.40;;;7.50;99.90;;;;;;5095990;28;20635;-85
2022/12/22 17:24:26;;;;;;;495.65;402.60;;;7.40;99.90;;;;;;5095867;28;20092;-90
2022/12/22 17:27:31;;;;;;;518.28;395.58;;;7.40;99.90;;;;;;5094720;28;20036;-87
2022/12/22 17:31:08;;;;;;;;;;;;;;;;;;;;;
2022/12/22 17:34:18;;;;;;;;;;;;;;;;;;;;;
2022/12/22 17:37:17;;;;;;;622.77;408.93;;;7.40;99.90;;;;;;5095691;28;20562;-93
2022/12/22 17:40:03;;;;;;;721.75;419.55;;;7.40;99.90;;;;;;5089633;28;20115;-89
2022/12/22 17:42:53;;;;;;;581.65;338.63;;;7.40;99.90;;;;;;5095769;28;20039;-88
2022/12/22 17:46:00;;;;;;;753.15;391.83;;;7.40;99.90;;;;;;5091944;28;20048;-88
2022/12/22 17:49:32;;;;;;;;;;;;;;;;;;;;;
2022/12/22 17:53:00;;;;;;;790.13;433.50;;;7.40;99.90;;;;;;5095088;28;20048;-89
2022/12/22 17:56:36;;;;;;;794.10;433.48;;;7.40;99.90;;;;;;5095361;28;20504;-89
2022/12/22 17:59:44;;;;;;;684.10;355.90;;;7.40;99.90;;;;;;5093219;28;20421;-88
2022/12/22 18:03:10;;;;;;;650.45;346.52;;;7.30;99.90;;;;;;5103914;27;20051;-87
2022/12/22 18:06:24;;;;;;;;;;;;;;;;;;;;;
2022/12/22 18:09:22;;;;;;;736.60;368.77;;;7.30;99.90;;;;;;5127491;27;19963;-88
2022/12/22 18:12:30;;;;;;;776.20;430.50;;;7.30;99.90;;;;;;5135917;27;20050;-88
2022/12/22 18:15:46;;;;;;;;;;;;;;;;;;;;;
2022/12/22 18:19:04;;;;;;;757.97;369.67;;;7.30;99.90;;;;;;5116724;27;20408;-88
2022/12/22 18:22:12;;;;;;;799.97;387.17;;;7.20;99.90;;;;;;5099621;27;20385;-88
2022/12/22 18:25:46;;;;;;;785.53;435.95;;;7.20;99.90;;;;;;5118186;27;20063;-86
2022/12/22 18:29:10;;;;;;;;;;;;;;;;;;;;;
2022/12/22 18:32:45;;;;;;;;;;;;;;;;;;;;;
2022/12/22 18:35:56;;;;;;;824.50;448.20;;;7.20;99.90;;;;;;5133580;27;20092;-86
2022/12/22 18:39:18;;;;;;;757.55;387.33;;;7.10;99.90;;;;;;5135670;27;20047;-86
2022/12/22 18:42:44;;;;;;;;;;;;;;;;;;;;;
2022/12/22 18:46:14;;;;;;;;;;;;;;;;;;;;;
2022/12/22 18:49:40;;;;;;;;;;;;;;;;;;;;;
2022/12/22 18:52:56;;;;;;;782.05;432.30;;;7.10;99.90;;;;;;5099083;27;20047;-85
2022/12/22 18:55:44;;;;;;;802.58;434.50;;;7.00;99.90;;;;;;5128101;27;20491;-85
2022/12/22 18:58:40;;;;;;;;;;;;;;;;;;;;;
2022/12/22 19:01:38;;;;;;;789.95;380.33;;;7.00;99.90;;;;;;5114428;28;20117;-86
2022/12/22 19:04:46;;;;;;;794.28;435.08;;;7.00;99.90;;;;;;5132550;27;20061;-86
2022/12/22 19:08:04;;;;;;;746.17;375.08;;;7.10;99.90;;;;;;5134914;27;20047;-85
2022/12/22 19:11:38;;;;;;;;;;;;;;;;;;;;;
2022/12/22 19:15:02;;;;;;;689.53;356.63;;;6.90;99.90;;;;;;5134914;27;20135;-87
2022/12/22 19:18:16;;;;;;;;;;;;;;;;;;;;;
2022/12/22 19:21:54;;;;;;;836.83;431.83;;;6.90;99.90;;;;;;5134802;27;20453;-87
2022/12/22 19:25:16;;;;;;;872.47;445.08;;;6.90;99.90;;;;;;5134505;27;20127;-87
2022/12/22 19:28:58;;;;;;;;;;;;;;;;;;;;;
2022/12/22 19:32:12;;;;;;;739.22;367.25;;;6.90;99.90;;;;;;5013280;28;20481;-86
2022/12/22 19:34:59;;;;;;;678.25;350.45;;;6.80;99.90;;;;;;5028796;28;20049;-86
2022/12/22 19:37:27;;;;;;;760.55;370.38;;;6.80;99.90;;;;;;5031214;28;20041;-84
2022/12/22 19:39:54;;;;;;;714.70;361.88;;;6.80;99.90;;;;;;5013467;28;20060;-83
2022/12/22 19:42:24;;;;;;;724.80;430.27;;;6.80;99.90;;;;;;5023175;28;20034;-86
2022/12/22 19:44:58;;;;;;;682.90;361.00;;;6.80;99.90;;;;;;5011256;28;20071;-86
2022/12/22 19:47:28;;;;;;;751.35;425.02;;;6.80;99.90;;;;;;4995135;28;20053;-87
2022/12/22 19:49:58;;;;;;;635.60;343.75;;;6.80;99.90;;;;;;5011168;28;20046;-90
2022/12/22 19:52:29;;;;;;;749.67;430.88;;;7.00;99.90;;;;;;5006622;28;20124;-81
2022/12/22 19:55:03;;;;;;;762.33;433.27;;;6.80;99.90;;;;;;5024351;28;20054;-88
2022/12/22 19:57:40;;;;;;;672.90;351.67;;;6.80;99.90;;;;;;5015197;28;20069;-86
2022/12/22 20:00:24;;;;;;;716.00;433.92;;;6.80;99.90;;;;;;5029601;28;20557;-83
2022/12/22 20:02:56;;;;;;;687.58;354.30;;;6.80;99.90;;;;;;5030589;28;20061;-83
2022/12/22 20:05:28;;;;;;;632.60;337.75;;;6.80;99.90;;;;;;5030554;28;20045;-84
2022/12/22 20:08:02;;;;;;;616.03;335.15;;;6.80;99.90;;;;;;5090863;28;20526;-83
2022/12/22 20:10:38;;;;;;;676.95;355.60;;;6.80;99.90;;;;;;5092515;28;20044;-87
2022/12/22 20:13:18;;;;;;;702.10;425.33;;;6.80;99.90;;;;;;5087881;28;20060;-84
2022/12/22 20:15:44;;;;;;;606.72;335.02;;;6.70;99.90;;;;;;5092032;28;20051;-83
2022/12/22 20:18:19;;;;;;;695.42;361.70;;;6.70;99.90;;;;;;5091582;28;20051;-85
2022/12/22 20:20:56;;;;;;;642.20;350.95;;;7.10;99.90;;;;;;5092283;28;20048;-84
2022/12/22 20:23:28;;;;;;;807.58;435.52;;;6.70;99.90;;;;;;5096255;28;20127;-87
2022/12/22 20:26:02;;;;;;;678.15;355.98;;;6.70;99.90;;;;;;5097135;28;20392;-83
2022/12/22 20:28:31;;;;;;;693.80;360.73;;;6.80;99.90;;;;;;5095992;28;20048;-86
2022/12/22 20:31:01;;;;;;;719.85;435.70;;;6.70;99.90;;;;;;5096523;28;20438;-84
2022/12/22 20:33:28;;;;;;;804.87;446.07;;;6.70;99.90;;;;;;5097164;28;20469;-86
2022/12/22 20:36:02;;;;;;;609.15;336.02;;;6.70;99.90;;;;;;5096095;28;20119;-84
2022/12/22 20:38:31;;;;;;;624.47;345.30;;;6.90;99.90;;;;;;5095535;28;20075;-83
2022/12/22 20:40:58;;;;;;;650.65;349.00;;;6.70;99.90;;;;;;5096616;28;20048;-84
2022/12/22 20:43:28;;;;;;;697.40;428.27;;;6.70;99.90;;;;;;5094836;28;20040;-85
2022/12/22 20:45:59;;;;;;;693.75;424.90;;;6.70;99.90;;;;;;5093020;28;20068;-83
2022/12/22 20:48:38;;;;;;;773.40;435.77;;;6.70;99.90;;;;;;5075851;28;20037;-84
2022/12/22 20:51:09;;;;;;;374.60;281.88;;;6.70;99.90;;;;;;5082184;28;20504;-84
2022/12/22 20:53:38;;;;;;;657.03;352.50;;;6.70;99.90;;;;;;5075701;28;20517;-82
2022/12/22 20:56:30;;;;;;;711.05;366.67;;;6.70;99.90;;;;;;5090601;28;20052;-82
2022/12/22 20:59:12;;;;;;;687.13;423.65;;;6.70;99.90;;;;;;5033785;28;20054;-83
2022/12/22 21:01:41;;;;;;;747.45;369.45;;;6.70;99.90;;;;;;5033588;28;20057;-82
2022/12/22 21:04:09;;;;;;;640.33;348.65;;;6.70;99.90;;;;;;5033377;28;20077;-82
2022/12/22 21:06:42;;;;;;;633.92;342.05;;;6.70;99.90;;;;;;5033318;28;20046;-84
2022/12/22 21:09:12;;;;;;;;;;;6.70;99.90;;;;;;5019064;28;20041;-85